createdAt,value
2019-01-16T00:00:03.713Z,22.67
2019-01-16T00:02:55.824Z,18.67
2019-01-16T00:05:51.317Z,24.90
2019-01-16T00:08:48.294Z,31.33
2019-01-16T00:11:50.651Z,26.47
2019-01-16T00:15:02.435Z,27.03
2019-01-16T00:17:54.779Z,24.70
2019-01-16T00:20:49.182Z,29.03
2019-01-16T00:23:43.286Z,22.13
2019-01-16T00:26:39.640Z,20.43
2019-01-16T00:29:33.358Z,24.73
2019-01-16T00:32:43.233Z,20.47
2019-01-16T00:35:37.021Z,18.70
2019-01-16T00:38:46.133Z,24.27
2019-01-16T00:41:29.904Z,24.70
2019-01-16T00:44:21.842Z,24.23
2019-01-16T00:47:21.420Z,19.73
2019-01-16T00:50:13.246Z,24.10
2019-01-16T00:53:12.148Z,24.93
2019-01-16T00:56:01.955Z,22.87
2019-01-16T00:59:02.988Z,19.87
2019-01-16T01:01:54.773Z,11.67
2019-01-16T01:04:49.386Z,10.57
2019-01-16T01:07:46.561Z,10.83
2019-01-16T01:10:55.875Z,13.03
2019-01-16T01:13:53.450Z,16.37
2019-01-16T01:16:45.984Z,8.47
2019-01-16T01:19:37.515Z,14.93
2019-01-16T01:22:23.368Z,8.73
2019-01-16T01:25:23.413Z,11.73
2019-01-16T01:28:29.493Z,8.73
2019-01-16T01:31:18.829Z,8.30
2019-01-16T01:34:07.662Z,8.10
2019-01-16T01:37:13.807Z,11.07
2019-01-16T01:40:13.155Z,7.67
2019-01-16T01:43:04.757Z,9.50
2019-01-16T01:45:56.716Z,7.67
2019-01-16T01:48:47.803Z,6.97
2019-01-16T01:51:48.328Z,9.63
2019-01-16T01:54:47.547Z,7.57
2019-01-16T01:57:45.195Z,7.47
2019-01-16T02:00:49.537Z,8.53
2019-01-16T02:03:55.567Z,8.97
2019-01-16T02:06:47.648Z,7.23
2019-01-16T02:09:44.553Z,8.93
2019-01-16T02:12:36.815Z,7.53
2019-01-16T02:15:26.470Z,7.87
2019-01-16T02:18:38.580Z,11.67
2019-01-16T02:21:44.641Z,4.90
2019-01-16T02:24:47.935Z,7.90
2019-01-16T02:27:47.592Z,9.27
2019-01-16T02:30:45.433Z,6.27
2019-01-16T02:33:38.291Z,9.10
2019-01-16T02:36:29.289Z,4.47
2019-01-16T02:39:33.580Z,16.57
2019-01-16T02:42:51.347Z,10.27
2019-01-16T02:45:58.086Z,4.57
2019-01-16T02:48:55.878Z,6.20
2019-01-16T02:51:52.587Z,7.30
2019-01-16T02:54:56.923Z,3.83
2019-01-16T02:58:00.411Z,5.33
2019-01-16T03:00:54.374Z,3.07
2019-01-16T03:03:41.605Z,2.27
2019-01-16T03:06:29.748Z,2.00
2019-01-16T03:09:15.241Z,3.67
2019-01-16T03:12:18.208Z,3.80
2019-01-16T03:15:04.503Z,4.57
2019-01-16T03:17:57.582Z,2.30
2019-01-16T03:20:51.293Z,3.03
2019-01-16T03:23:44.897Z,16.63
2019-01-16T03:26:39.080Z,5.67
2019-01-16T03:29:36.121Z,7.07
2019-01-16T03:32:29.189Z,1.40
2019-01-16T03:35:19.157Z,4.87
2019-01-16T03:38:11.817Z,4.33
2019-01-16T03:40:59.036Z,4.53
2019-01-16T03:43:56.561Z,1.90
2019-01-16T03:46:51.213Z,2.03
2019-01-16T03:49:59.402Z,2.10
2019-01-16T03:52:53.008Z,4.17
2019-01-16T03:55:44.695Z,20.53
2019-01-16T03:58:47.159Z,9.90
2019-01-16T04:01:39.512Z,2.47
2019-01-16T04:04:19.569Z,6.53
2019-01-16T04:07:13.426Z,6.20
2019-01-16T04:10:20.323Z,2.60
2019-01-16T04:13:23.361Z,19.00
2019-01-16T04:16:35.687Z,13.43
2019-01-16T04:19:28.360Z,16.80
2019-01-16T04:22:20.761Z,12.50
2019-01-16T04:25:16.105Z,12.20
2019-01-16T04:28:10.183Z,7.50
2019-01-16T04:31:04.420Z,8.30
2019-01-16T04:34:03.762Z,28.60
2019-01-16T04:37:07.155Z,10.70
2019-01-16T04:39:48.636Z,14.37
2019-01-16T04:42:55.318Z,9.67
2019-01-16T04:45:47.249Z,10.90
2019-01-16T04:48:35.153Z,23.07
2019-01-16T04:51:26.906Z,16.37
2019-01-16T04:54:23.201Z,27.93
2019-01-16T04:57:21.138Z,42.83
2019-01-16T05:00:24.350Z,16.77
2019-01-16T05:03:16.333Z,36.27
2019-01-16T05:06:08.606Z,15.87
2019-01-16T05:09:01.921Z,22.33
2019-01-16T05:11:56.897Z,26.90
2019-01-16T05:14:55.800Z,17.40
2019-01-16T05:18:05.269Z,18.57
2019-01-16T05:21:02.921Z,22.73
2019-01-16T05:23:55.885Z,52.60
2019-01-16T05:26:48.387Z,24.47
2019-01-16T05:29:43.046Z,24.30
2019-01-16T05:32:42.841Z,39.73
2019-01-16T05:35:47.997Z,27.33
2019-01-16T05:38:45.337Z,18.80
2019-01-16T05:41:38.577Z,20.63
2019-01-16T05:44:38.147Z,18.03
2019-01-16T05:47:36.961Z,28.20
2019-01-16T05:50:40.872Z,26.43
2019-01-16T05:53:34.108Z,18.67
2019-01-16T05:56:25.443Z,18.63
2019-01-16T05:59:10.837Z,25.10
2019-01-16T06:02:02.541Z,30.27
2019-01-16T06:04:47.619Z,34.93
2019-01-16T06:07:37.132Z,38.13
2019-01-16T06:10:37.729Z,22.50
2019-01-16T06:13:38.676Z,16.97
2019-01-16T06:16:35.733Z,21.20
2019-01-16T06:19:35.618Z,29.20
2019-01-16T06:22:37.333Z,29.80
2019-01-16T06:25:39.302Z,48.37
2019-01-16T06:28:42.141Z,40.50
2019-01-16T06:31:45.668Z,21.00
2019-01-16T06:34:39.642Z,31.43
2019-01-16T06:37:31.607Z,20.87
2019-01-16T06:40:24.732Z,28.83
2019-01-16T06:43:22.459Z,56.07
2019-01-16T06:46:20.439Z,34.97
2019-01-16T06:49:14.018Z,35.60
2019-01-16T06:52:01.484Z,38.20
2019-01-16T06:54:51.049Z,28.70
2019-01-16T06:57:48.351Z,23.40
2019-01-16T07:00:38.167Z,21.70
2019-01-16T07:03:30.669Z,31.00
2019-01-16T07:06:38.926Z,30.03
2019-01-16T07:09:43.037Z,34.67
2019-01-16T07:12:36.783Z,44.13
2019-01-16T07:15:29.268Z,50.87
2019-01-16T07:18:25.875Z,39.63
2019-01-16T07:21:18.736Z,34.07
2019-01-16T07:24:10.541Z,31.30
2019-01-16T07:27:09.223Z,23.57
2019-01-16T07:29:59.169Z,29.33
2019-01-16T07:33:01.477Z,25.60
2019-01-16T07:35:52.499Z,22.73
2019-01-16T07:38:48.331Z,28.87
2019-01-16T07:41:34.543Z,27.50
2019-01-16T07:44:25.717Z,22.27
2019-01-16T07:47:27.151Z,21.17
2019-01-16T07:54:06.617Z,44.17
2019-01-16T07:56:52.139Z,51.67
2019-01-16T07:59:44.804Z,25.97
2019-01-16T08:02:53.159Z,34.07
2019-01-16T08:06:02.928Z,22.23
2019-01-16T08:08:59.915Z,18.57
2019-01-16T08:12:07.546Z,18.30
2019-01-16T08:15:06.599Z,29.97
2019-01-16T08:18:01.901Z,31.03
2019-01-16T08:20:54.428Z,27.57
2019-01-16T08:23:45.470Z,22.10
2019-01-16T08:26:48.500Z,27.97
2019-01-16T08:29:36.714Z,26.93
2019-01-16T08:32:22.397Z,35.43
2019-01-16T08:35:10.178Z,30.70
2019-01-16T08:38:12.588Z,27.10
2019-01-16T08:41:10.359Z,17.47
2019-01-16T08:44:18.541Z,16.20
2019-01-16T08:47:32.959Z,18.43
2019-01-16T08:50:32.496Z,26.20
2019-01-16T08:53:27.926Z,31.80
2019-01-16T08:56:22.534Z,22.10
2019-01-16T08:59:30.128Z,24.73
2019-01-16T09:02:24.583Z,30.00
2019-01-16T09:05:16.506Z,14.43
2019-01-16T09:08:05.778Z,29.47
2019-01-16T09:10:57.553Z,23.70
2019-01-16T09:13:59.831Z,32.67
2019-01-16T09:16:57.189Z,19.13
2019-01-16T09:20:05.143Z,16.23
2019-01-16T09:23:00.597Z,23.73
2019-01-16T09:26:04.137Z,16.57
2019-01-16T09:29:00.897Z,18.27
2019-01-16T09:32:06.825Z,13.70
2019-01-16T09:34:49.015Z,13.33
2019-01-16T09:37:49.742Z,19.17
2019-01-16T09:40:45.562Z,16.40
2019-01-16T09:43:38.171Z,14.03
2019-01-16T09:46:27.415Z,18.30
2019-01-16T09:49:22.530Z,8.17
2019-01-16T09:52:16.727Z,5.43
2019-01-16T09:55:22.360Z,23.00
2019-01-16T09:58:12.390Z,9.13
2019-01-16T10:01:01.333Z,5.87
2019-01-16T10:03:59.771Z,6.50
2019-01-16T10:06:49.361Z,6.90
2019-01-16T10:09:47.672Z,6.20
2019-01-16T10:12:43.411Z,8.33
2019-01-16T10:15:32.421Z,6.87
2019-01-16T10:18:19.261Z,7.13
2019-01-16T10:21:15.031Z,7.57
2019-01-16T10:32:18.215Z,6.87
2019-01-16T10:35:17.846Z,7.20
2019-01-16T10:38:09.497Z,6.37
2019-01-16T10:41:02.610Z,6.53
2019-01-16T10:43:58.875Z,8.50
2019-01-16T10:46:59.588Z,10.23
2019-01-16T10:49:55.162Z,7.50
2019-01-16T10:52:48.807Z,8.83
2019-01-16T10:55:42.119Z,3.37
2019-01-16T10:58:35.498Z,6.30
2019-01-16T11:01:30.385Z,7.07
2019-01-16T11:04:26.565Z,10.83
2019-01-16T11:07:33.778Z,6.23
2019-01-16T11:10:27.207Z,8.23
2019-01-16T11:13:36.634Z,9.10
2019-01-16T11:16:56.616Z,10.63
2019-01-16T11:19:42.063Z,12.97
2019-01-16T11:22:33.994Z,13.07
2019-01-16T11:25:23.775Z,7.17
2019-01-16T11:28:02.527Z,13.00
2019-01-16T11:31:02.571Z,8.80
2019-01-16T11:33:56.553Z,13.27
2019-01-16T11:36:51.145Z,12.87
2019-01-16T11:39:45.001Z,17.03
2019-01-16T11:42:41.595Z,9.50
2019-01-16T11:45:32.295Z,15.10
2019-01-16T11:48:24.589Z,14.47
2019-01-16T11:51:18.611Z,15.13
2019-01-16T11:54:06.817Z,12.27
2019-01-16T11:56:48.381Z,13.63
2019-01-16T11:59:39.979Z,16.80
2019-01-16T12:02:46.254Z,16.60
2019-01-16T12:05:37.522Z,11.27
2019-01-16T12:08:29.787Z,9.93
2019-01-16T12:11:26.384Z,6.67
2019-01-16T12:14:35.816Z,9.67
2019-01-16T12:17:35.507Z,16.00
2019-01-16T12:20:28.997Z,14.70
2019-01-16T12:23:23.430Z,7.93
2019-01-16T12:26:26.796Z,11.00
2019-01-16T12:29:25.935Z,11.93
2019-01-16T12:32:20.878Z,8.73
2019-01-16T12:35:20.951Z,13.27
2019-01-16T12:38:13.409Z,9.23
2019-01-16T12:41:01.756Z,11.13
2019-01-16T12:43:53.048Z,21.50
2019-01-16T12:46:57.311Z,15.67
2019-01-16T12:49:43.775Z,11.07
2019-01-16T12:52:39.089Z,8.13
2019-01-16T12:55:39.486Z,8.47
2019-01-16T12:58:31.284Z,13.77
2019-01-16T13:01:23.245Z,11.60
2019-01-16T13:04:13.945Z,17.43
2019-01-16T13:07:12.887Z,15.77
2019-01-16T13:10:03.241Z,16.93
2019-01-16T13:13:01.759Z,10.23
2019-01-16T13:15:51.835Z,19.27
2019-01-16T13:18:44.043Z,15.50
2019-01-16T13:21:41.295Z,12.07
2019-01-16T13:24:51.149Z,13.40
2019-01-16T13:27:42.695Z,10.13
2019-01-16T13:30:36.894Z,10.10
2019-01-16T13:33:31.711Z,10.57
2019-01-16T13:36:24.193Z,20.10
2019-01-16T13:39:19.721Z,8.90
2019-01-16T13:42:08.732Z,10.90
2019-01-16T13:45:13.918Z,20.30
2019-01-16T13:48:15.936Z,26.67
2019-01-16T13:51:14.378Z,15.67
2019-01-16T13:54:16.114Z,14.33
2019-01-16T13:57:09.766Z,14.10
2019-01-16T14:00:07.134Z,9.07
2019-01-16T14:02:54.681Z,13.17
2019-01-16T14:05:39.970Z,21.43
2019-01-16T14:08:45.459Z,19.07
2019-01-16T14:11:29.050Z,25.77
2019-01-16T14:14:27.323Z,21.27
2019-01-16T14:17:36.695Z,12.03
2019-01-16T14:20:38.880Z,17.87
2019-01-16T14:23:43.931Z,22.03
2019-01-16T14:26:44.380Z,25.93
2019-01-16T14:29:33.185Z,24.73
2019-01-16T14:32:36.710Z,17.73
2019-01-16T14:35:37.759Z,35.53
2019-01-16T14:38:30.291Z,22.63
2019-01-16T14:41:19.752Z,29.13
2019-01-16T14:44:10.609Z,21.13
2019-01-16T14:47:13.322Z,21.23
2019-01-16T14:50:17.601Z,20.77
2019-01-16T14:53:11.707Z,14.07
2019-01-16T14:56:18.465Z,14.60
2019-01-16T14:59:18.505Z,25.93
2019-01-16T15:02:17.619Z,16.77
2019-01-16T15:05:05.482Z,15.80
2019-01-16T15:08:13.177Z,23.47
2019-01-16T15:11:17.136Z,31.00
2019-01-16T15:14:12.509Z,42.60
2019-01-16T15:16:59.276Z,68.63
2019-01-16T15:19:57.593Z,65.73
2019-01-16T15:22:50.251Z,71.73
2019-01-16T15:25:46.010Z,61.60
2019-01-16T15:28:45.158Z,60.57
2019-01-16T15:31:58.382Z,53.67
2019-01-16T15:35:02.829Z,44.70
2019-01-16T15:37:55.061Z,51.10
2019-01-16T15:40:53.049Z,48.73
2019-01-16T15:43:45.101Z,40.30
2019-01-16T15:46:27.269Z,47.73
2019-01-16T15:49:34.447Z,56.57
2019-01-16T15:52:25.325Z,60.70
2019-01-16T15:55:24.469Z,47.03
2019-01-16T15:58:37.252Z,40.97
2019-01-16T16:01:38.490Z,54.57
2019-01-16T16:04:33.147Z,70.07
2019-01-16T16:07:18.998Z,59.40
2019-01-16T16:10:10.811Z,50.27
2019-01-16T16:13:02.851Z,56.37
2019-01-16T16:15:55.917Z,46.07
2019-01-16T16:18:56.001Z,52.73
2019-01-16T16:21:55.913Z,33.33
2019-01-16T16:24:59.695Z,36.20
2019-01-16T16:27:54.061Z,41.80
2019-01-16T16:30:47.772Z,40.87
2019-01-16T16:33:42.144Z,58.27
2019-01-16T16:36:41.453Z,61.87
2019-01-16T16:39:38.935Z,77.17
2019-01-16T16:42:39.525Z,57.60
2019-01-16T16:45:35.688Z,76.03
2019-01-16T16:48:28.323Z,57.53
2019-01-16T16:51:22.619Z,67.60
2019-01-16T16:54:22.287Z,66.93
2019-01-16T16:57:05.476Z,66.90
2019-01-16T17:00:19.671Z,64.03
2019-01-16T17:03:30.607Z,66.60
2019-01-16T17:06:40.765Z,70.57
2019-01-16T17:09:33.210Z,101.33
2019-01-16T17:12:37.875Z,76.83
2019-01-16T17:15:40.116Z,77.13
2019-01-16T17:18:39.449Z,82.63
2019-01-16T17:21:32.679Z,78.43
2019-01-16T17:24:13.705Z,84.80
2019-01-16T17:27:01.731Z,102.97
2019-01-16T17:29:48.757Z,96.37
2019-01-16T17:32:55.067Z,72.73
2019-01-16T17:35:47.263Z,96.37
2019-01-16T17:38:44.789Z,101.63
2019-01-16T17:41:37.555Z,98.07
2019-01-16T17:44:44.390Z,96.70
2019-01-16T17:47:37.855Z,111.30
2019-01-16T17:50:42.560Z,119.53
2019-01-16T17:53:43.349Z,139.93
2019-01-16T17:56:57.357Z,151.47
2019-01-16T17:59:51.108Z,133.53
2019-01-16T18:02:59.778Z,142.47
2019-01-16T18:05:58.557Z,163.50
2019-01-16T18:08:52.653Z,166.60
2019-01-16T18:12:02.680Z,172.37
2019-01-16T18:14:56.990Z,165.13
2019-01-16T18:17:51.151Z,186.50
2019-01-16T18:20:43.937Z,186.57
2019-01-16T18:23:39.445Z,169.53
2019-01-16T18:26:31.855Z,207.87
2019-01-16T18:29:20.426Z,193.37
2019-01-16T18:32:17.277Z,200.13
2019-01-16T18:35:10.241Z,192.30
2019-01-16T18:37:56.650Z,199.23
2019-01-16T18:40:50.685Z,183.53
2019-01-16T18:43:48.907Z,170.60
2019-01-16T18:46:42.534Z,165.73
2019-01-16T18:49:36.636Z,169.50
2019-01-16T18:52:37.703Z,153.73
2019-01-16T18:55:40.111Z,141.70
2019-01-16T18:58:32.670Z,132.40
2019-01-16T19:01:29.496Z,153.17
2019-01-16T19:04:25.856Z,152.07
2019-01-16T19:07:25.572Z,135.73
2019-01-16T19:10:18.647Z,134.43
2019-01-16T19:13:09.543Z,132.47
2019-01-16T19:15:53.668Z,134.83
2019-01-16T19:18:47.048Z,124.23
2019-01-16T19:21:41.331Z,108.80
2019-01-16T19:24:22.475Z,107.33
2019-01-16T19:27:41.553Z,96.10
2019-01-16T19:30:27.564Z,85.27
2019-01-16T19:33:21.843Z,102.50
2019-01-16T19:36:12.064Z,98.83
2019-01-16T19:39:04.054Z,103.37
2019-01-16T19:41:59.147Z,87.27
2019-01-16T19:44:52.058Z,114.67
2019-01-16T19:47:55.319Z,121.33
2019-01-16T19:51:04.425Z,113.73
2019-01-16T19:56:15.739Z,123.27
2019-01-16T19:59:07.495Z,119.00
2019-01-16T20:01:52.911Z,116.87
2019-01-16T20:04:58.879Z,118.20
2019-01-16T20:07:54.011Z,111.67
2019-01-16T20:10:46.154Z,94.80
2019-01-16T20:13:48.284Z,111.73
2019-01-16T20:16:48.192Z,97.70
2019-01-16T20:19:43.343Z,107.80
2019-01-16T20:22:36.749Z,108.03
2019-01-16T20:25:40.175Z,122.37
2019-01-16T20:28:47.238Z,101.17
2019-01-16T20:31:43.762Z,118.63
2019-01-16T20:34:26.440Z,96.47
2019-01-16T20:37:20.196Z,99.33
2019-01-16T20:40:13.794Z,95.60
2019-01-16T20:43:12.019Z,102.23
2019-01-16T20:46:12.337Z,94.53
2019-01-16T20:48:55.274Z,101.77
2019-01-16T20:52:01.566Z,112.77
2019-01-16T20:55:02.667Z,86.53
2019-01-16T20:58:12.442Z,85.97
2019-01-16T21:01:06.775Z,77.63
2019-01-16T21:03:58.704Z,61.67
2019-01-16T21:07:08.983Z,60.50
2019-01-16T21:10:06.935Z,72.97
2019-01-16T21:13:08.316Z,57.93
2019-01-16T21:15:53.078Z,54.10
2019-01-16T21:18:59.999Z,46.20
2019-01-16T21:21:52.274Z,62.43
2019-01-16T21:25:01.601Z,67.23
2019-01-16T21:28:04.302Z,78.97
2019-01-16T21:30:59.157Z,78.53
2019-01-16T21:33:56.978Z,71.67
2019-01-16T21:36:48.596Z,87.20
2019-01-16T21:39:42.868Z,81.13
2019-01-16T21:42:43.120Z,86.20
2019-01-16T21:45:37.389Z,73.13
2019-01-16T21:48:31.270Z,75.37
2019-01-16T21:51:18.088Z,75.00
2019-01-16T21:54:11.132Z,83.07
2019-01-16T21:57:04.682Z,64.57
2019-01-16T22:00:04.676Z,72.00
2019-01-16T22:02:58.713Z,56.10
2019-01-16T22:05:55.646Z,61.57
2019-01-16T22:09:01.993Z,82.70
2019-01-16T22:11:54.218Z,69.60
2019-01-16T22:14:46.669Z,56.97
2019-01-16T22:17:45.112Z,77.90
2019-01-16T22:20:47.959Z,51.33
2019-01-16T22:23:41.101Z,80.37
2019-01-16T22:26:39.557Z,48.73
2019-01-16T22:29:33.298Z,38.23
2019-01-16T22:32:30.218Z,77.97
2019-01-16T22:35:11.779Z,56.33
2019-01-16T22:38:02.709Z,41.43
2019-01-16T22:40:53.813Z,43.97
2019-01-16T22:43:46.943Z,51.93
2019-01-16T22:46:40.091Z,56.53
2019-01-16T22:49:34.034Z,48.73
2019-01-16T22:52:40.443Z,49.13
2019-01-16T22:55:46.652Z,48.57
2019-01-16T22:58:26.198Z,69.50
2019-01-16T23:01:25.559Z,48.33
2019-01-16T23:04:17.327Z,64.27
2019-01-16T23:07:08.860Z,39.53
2019-01-16T23:09:57.173Z,33.67
2019-01-16T23:12:48.347Z,38.10
2019-01-16T23:15:56.051Z,57.70
2019-01-16T23:18:46.595Z,49.40
2019-01-16T23:21:46.972Z,42.23
2019-01-16T23:24:35.377Z,44.60
2019-01-16T23:27:33.097Z,55.30
2019-01-16T23:30:27.397Z,52.97
2019-01-16T23:33:18.847Z,77.57
2019-01-16T23:36:10.722Z,58.17
2019-01-16T23:39:05.099Z,56.10
2019-01-16T23:42:10.438Z,60.70
2019-01-16T23:44:59.318Z,50.07
2019-01-16T23:47:56.942Z,123.43
2019-01-16T23:51:09.478Z,72.33
2019-01-16T23:54:11.402Z,62.00
2019-01-16T23:57:04.680Z,59.50
2019-01-16T23:59:57.114Z,60.53
